Time;durP1;ratioP1;P1;durP2;ratioP2;P2;SDS_P1;SDS_P2;PMS_P1;PMS_P2;Temp;Humidity;BMP_temperature;BMP_pressure;BME280_temperature;BME280_humidity;BME280_pressure;Samples;Min_cycle;Max_cycle;Signal;HPM_P1;HPM_P2
2023/01/09 00:01:42;;;;;;;13.27;5.10;;;;;;;-14.61;72.16;102268.41;10497079;28;20452;-80
2023/01/09 00:06:45;;;;;;;12.77;4.10;;;;;;;-14.72;72.30;102240.06;10495616;28;20045;-79
2023/01/09 00:11:46;;;;;;;14.75;4.05;;;;;;;-14.61;71.91;102274.34;10497402;28;20040;-80
2023/01/09 00:16:47;;;;;;;11.18;4.75;;;;;;;-15.26;72.00;102157.13;10497202;28;20094;-80
2023/01/09 00:21:48;;;;;;;14.85;4.45;;;;;;;-14.51;72.15;102283.91;10496474;28;20083;-80
2023/01/09 00:26:49;;;;;;;14.20;4.18;;;;;;;-14.94;71.85;102190.22;10496933;28;20057;-79
2023/01/09 00:31:49;;;;;;;12.32;4.47;;;;;;;-14.38;71.49;102284.25;10496431;28;20092;-79
2023/01/09 00:36:54;;;;;;;9.75;3.53;;;;;;;-14.46;71.83;102263.63;10495683;28;20045;-80
2023/01/09 00:41:57;;;;;;;11.27;4.07;;;;;;;-14.49;71.49;102287.38;10496140;28;20040;-80
2023/01/09 00:47:19;;;;;;;12.15;3.80;;;;;;;-15.14;71.48;102171.88;10495375;28;20071;-80
2023/01/09 00:52:21;;;;;;;13.32;3.88;;;;;;;-14.69;71.29;102278.41;10495388;28;20132;-80
2023/01/09 00:57:22;;;;;;;12.05;4.68;;;;;;;-14.75;71.47;102274.00;10495770;28;20078;-79
2023/01/09 01:02:23;;;;;;;12.75;4.82;;;;;;;-15.16;71.45;102187.94;10495218;28;20062;-80
2023/01/09 01:07:39;;;;;;;10.90;4.47;;;;;;;-14.62;71.95;102272.63;10495986;28;20380;-80
2023/01/09 01:12:39;;;;;;;15.73;3.40;;;;;;;-14.84;71.35;102248.25;10495608;28;20051;-80
2023/01/09 01:17:41;;;;;;;12.40;4.95;;;;;;;-14.65;71.72;102269.16;10499067;28;20048;-80
2023/01/09 01:22:42;;;;;;;27.13;6.25;;;;;;;-15.72;71.39;102124.53;10503095;28;20640;-81
2023/01/09 01:27:44;;;;;;;18.90;6.00;;;;;;;-14.72;71.75;102299.59;10503235;28;20123;-80
2023/01/09 01:32:45;;;;;;;12.60;5.05;;;;;;;-14.69;71.49;102303.91;10502998;28;20086;-80
2023/01/09 01:37:48;;;;;;;13.38;5.13;;;;;;;-14.91;71.51;102274.44;10502900;28;20051;-80
2023/01/09 01:42:51;;;;;;;18.98;5.40;;;;;;;-14.90;71.31;102278.72;10502842;28;20040;-79
2023/01/09 01:48:07;;;;;;;19.98;5.90;;;;;;;-14.98;71.49;102275.97;10501865;28;20097;-80
2023/01/09 01:53:20;;;;;;;15.02;4.65;;;;;;;-14.84;71.61;102308.63;10502539;28;20085;-79
2023/01/09 01:58:21;;;;;;;10.75;4.65;;;;;;;-14.86;71.15;102306.03;10500938;28;20135;-79
2023/01/09 02:03:26;;;;;;;13.43;4.68;;;;;;;-14.97;71.31;102281.94;10501654;28;20135;-79
2023/01/09 02:08:26;;;;;;;13.13;4.68;;;;;;;-15.14;71.67;102252.59;10500481;28;20036;-79
2023/01/09 02:13:28;;;;;;;19.70;4.80;;;;;;;-15.34;71.60;102229.09;10501375;28;20053;-79
2023/01/09 02:19:09;;;;;;;11.02;4.65;;;;;;;-15.20;71.18;102255.81;10501286;28;20452;-79
2023/01/09 02:24:27;;;;;;;10.77;5.03;;;;;;;-14.91;71.64;102316.94;10471829;28;20048;-79
2023/01/09 02:29:49;;;;;;;15.40;5.40;;;;;;;-14.79;72.01;102301.97;10498597;28;20135;-79
2023/01/09 02:35:26;;;;;;;17.00;4.93;;;;;;;-14.70;71.24;102314.94;10500629;28;20500;-79
2023/01/09 02:40:35;;;;;;;17.15;4.47;;;;;;;-14.83;71.59;102298.47;10516120;28;20080;-77
2023/01/09 02:45:36;;;;;;;16.73;4.25;;;;;;;-14.78;71.16;102324.09;10516052;28;20051;-78
2023/01/09 02:51:17;;;;;;;12.48;4.20;;;;;;;-14.89;71.69;102298.31;10519541;28;20385;-78
2023/01/09 02:56:24;;;;;;;15.67;5.23;;;;;;;-14.76;71.20;102325.00;10499462;28;20508;-79
2023/01/09 03:01:55;;;;;;;13.57;4.72;;;;;;;-14.74;70.80;102336.97;10501147;28;20036;-78
2023/01/09 03:07:13;;;;;;;14.07;3.45;;;;;;;-15.09;70.90;102307.97;10510744;28;20048;-78
2023/01/09 03:12:21;;;;;;;11.43;3.75;;;;;;;-15.70;70.63;102228.19;10501564;28;20119;-78
2023/01/09 03:17:28;;;;;;;11.18;4.28;;;;;;;-15.26;71.08;102317.69;10514690;28;20138;-78
2023/01/09 03:22:29;;;;;;;14.43;4.07;;;;;;;-15.19;71.70;102311.09;10516845;28;20048;-82
2023/01/09 03:27:29;;;;;;;12.57;4.10;;;;;;;-15.03;72.02;102358.28;10531121;28;20032;-78
2023/01/09 03:32:30;;;;;;;21.83;4.50;;;;;;;-15.19;71.45;102340.00;10540093;28;20048;-78
2023/01/09 03:37:31;;;;;;;12.90;3.72;;;;;;;-15.35;71.55;102317.44;10536952;28;20100;-78
2023/01/09 03:42:32;;;;;;;10.23;4.28;;;;;;;-15.39;71.51;102327.53;10538793;28;20040;-77
2023/01/09 03:47:32;;;;;;;14.55;4.85;;;;;;;-15.11;71.69;102372.47;10539536;28;20047;-76
2023/01/09 03:52:34;;;;;;;11.73;4.50;;;;;;;-15.52;71.70;102300.78;10538125;28;20123;-76
2023/01/09 03:57:35;;;;;;;16.85;4.95;;;;;;;-15.33;71.53;102343.84;10512783;28;20500;-74
2023/01/09 04:02:36;;;;;;;12.63;4.80;;;;;;;-15.37;72.09;102328.41;10539052;28;20063;-77
2023/01/09 04:07:37;;;;;;;7.85;3.58;;;;;;;-15.12;72.06;102373.31;10537807;28;20487;-73
2023/01/09 04:12:38;;;;;;;11.35;4.38;;;;;;;-15.17;71.28;102383.38;10538881;28;20078;-73
2023/01/09 04:17:39;;;;;;;14.00;4.47;;;;;;;-15.60;71.19;102315.03;10536752;28;20074;-75
2023/01/09 04:22:41;;;;;;;11.32;4.60;;;;;;;-15.16;71.87;102381.69;10537684;28;20109;-73
2023/01/09 04:27:42;;;;;;;13.77;4.00;;;;;;;-15.19;71.68;102378.25;10538817;28;20534;-73
2023/01/09 04:32:43;;;;;;;14.85;4.47;;;;;;;-15.49;71.34;102321.31;10537172;28;20097;-76
2023/01/09 04:37:43;;;;;;;9.43;4.40;;;;;;;-15.16;71.12;102395.31;10537968;28;20097;-74
2023/01/09 04:42:44;;;;;;;11.77;3.88;;;;;;;-15.33;71.08;102369.31;10537530;28;20047;-76
2023/01/09 04:47:45;;;;;;;11.38;4.28;;;;;;;-15.33;70.97;102373.56;10538389;28;20049;-75
2023/01/09 04:52:46;;;;;;;12.00;3.80;;;;;;;-15.47;71.29;102368.91;10537840;28;20108;-75
2023/01/09 04:57:47;;;;;;;12.27;4.10;;;;;;;-15.32;70.78;102401.63;10537728;28;20062;-74
2023/01/09 05:02:47;;;;;;;9.20;3.83;;;;;;;-15.67;71.15;102350.50;10537465;28;20448;-74
2023/01/09 05:07:48;;;;;;;14.18;3.95;;;;;;;-15.74;71.47;102314.63;10537601;28;20138;-75
2023/01/09 05:12:51;;;;;;;14.85;4.13;;;;;;;-15.38;71.45;102335.19;10536758;28;20050;-75
2023/01/09 05:17:52;;;;;;;9.98;3.63;;;;;;;-14.86;71.88;102390.22;10537607;28;20056;-75
2023/01/09 05:22:52;;;;;;;13.10;5.22;;;;;;;-14.34;71.99;102418.78;10536371;28;20047;-75
2023/01/09 05:27:53;;;;;;;17.85;4.47;;;;;;;-14.54;72.28;102323.84;10536888;28;20113;-75
2023/01/09 05:32:54;;;;;;;12.90;5.22;;;;;;;-13.66;72.18;102436.63;10536399;28;20036;-75
2023/01/09 05:37:55;;;;;;;13.02;4.72;;;;;;;-13.59;71.61;102407.81;10537292;28;20085;-75
2023/01/09 05:42:56;;;;;;;12.40;4.70;;;;;;;-13.12;71.78;102446.34;10536157;28;20056;-75
2023/01/09 05:47:57;;;;;;;11.75;4.75;;;;;;;-13.08;72.09;102416.56;10536019;28;20066;-75
2023/01/09 05:52:57;;;;;;;11.77;4.85;;;;;;;-12.90;71.76;102412.69;10536663;28;20126;-76
2023/01/09 05:57:58;;;;;;;16.40;5.45;;;;;;;-12.31;71.72;102458.22;10536026;28;20040;-75
2023/01/09 06:02:59;;;;;;;9.45;4.40;;;;;;;-11.99;71.46;102463.94;10538156;28;20043;-76
2023/01/09 06:08:00;;;;;;;10.90;4.63;;;;;;;-12.03;71.20;102440.78;10543815;28;20086;-76
2023/01/09 06:13:01;;;;;;;13.02;4.55;;;;;;;-11.97;71.27;102420.38;10544186;28;20048;-76
2023/01/09 06:18:03;;;;;;;10.45;4.95;;;;;;;-11.34;71.27;102463.22;10544081;28;20141;-76
2023/01/09 06:23:04;;;;;;;9.68;4.75;;;;;;;-10.97;71.31;102462.88;10542507;28;20130;-76
2023/01/09 06:28:04;;;;;;;14.68;5.05;;;;;;;-11.17;70.57;102396.75;10542982;28;20493;-76
2023/01/09 06:33:05;;;;;;;11.00;3.78;;;;;;;-11.10;70.35;102369.44;10542714;28;20395;-76
2023/01/09 06:38:06;;;;;;;12.38;5.50;;;;;;;-10.51;70.13;102458.31;10542865;28;20082;-77
2023/01/09 06:43:07;;;;;;;14.95;6.20;;;;;;;-10.59;70.31;102463.34;10542540;28;20127;-77
2023/01/09 06:48:08;;;;;;;13.23;6.43;;;;;;;-10.43;70.35;102433.56;10542046;28;20036;-77
2023/01/09 06:53:09;;;;;;;18.17;7.38;;;;;;;-10.06;70.31;102433.91;10542602;28;20043;-77
2023/01/09 06:58:10;;;;;;;13.85;5.95;;;;;;;-9.72;70.07;102419.59;10541726;28;20068;-78
2023/01/09 07:03:18;;;;;;;15.40;6.95;;;;;;;-9.98;70.07;102339.72;10542244;28;20040;-77
2023/01/09 07:08:19;;;;;;;17.95;5.90;;;;;;;-9.17;69.78;102439.72;10540748;28;20044;-77
2023/01/09 07:13:19;;;;;;;14.70;4.93;;;;;;;-8.99;69.65;102404.63;10540634;28;20561;-77
2023/01/09 07:18:20;;;;;;;17.45;6.30;;;;;;;-8.87;69.14;102402.97;10540717;28;20051;-78
2023/01/09 07:23:21;;;;;;;11.70;5.35;;;;;;;-8.82;69.52;102353.19;10540291;28;20469;-78
2023/01/09 07:28:22;;;;;;;11.60;5.10;;;;;;;-8.48;69.81;102384.19;10540496;28;20032;-77
2023/01/09 07:33:22;;;;;;;10.10;4.90;;;;;;;-8.09;69.59;102405.69;10540443;28;20039;-77
2023/01/09 07:38:23;;;;;;;8.77;4.05;;;;;;;-7.84;68.98;102381.63;10539293;28;20051;-77
2023/01/09 07:43:24;;;;;;;11.20;4.53;;;;;;;-7.58;68.88;102399.66;10539578;28;20047;-78
2023/01/09 07:48:25;;;;;;;11.15;4.78;;;;;;;-7.36;68.08;102404.75;10539921;28;20042;-78
2023/01/09 07:53:26;;;;;;;11.95;4.22;;;;;;;-7.35;68.29;102372.94;10539425;28;20148;-78
2023/01/09 07:58:26;;;;;;;9.07;4.28;;;;;;;-6.89;68.25;102403.78;10539271;28;20114;-79
2023/01/09 08:03:27;;;;;;;11.38;4.13;;;;;;;-7.03;67.79;102320.28;10538533;28;20068;-79
2023/01/09 08:08:28;;;;;;;12.70;4.63;;;;;;;-6.44;67.88;102382.00;10538929;28;20046;-79
2023/01/09 08:13:29;;;;;;;8.50;4.45;;;;;;;-6.85;67.59;102293.50;10538741;28;20534;-78
2023/01/09 08:18:30;;;;;;;10.15;4.60;;;;;;;-6.89;67.84;102278.00;10538576;28;20062;-79
2023/01/09 08:23:31;;;;;;;13.27;5.50;;;;;;;-6.63;67.00;102294.25;10538648;28;20048;-80
2023/01/09 08:28:32;;;;;;;10.18;4.95;;;;;;;-6.26;66.81;102316.34;10539392;28;20430;-79
2023/01/09 08:33:32;;;;;;;8.43;4.75;;;;;;;-6.30;65.97;102285.38;10536979;28;20044;-79
2023/01/09 08:38:33;;;;;;;13.75;4.82;;;;;;;-6.11;66.67;102294.66;10537514;28;20040;-79
2023/01/09 08:48:53;;;;;;;10.98;4.78;;;;;;;-5.57;66.05;102302.72;10537336;28;20036;-79
2023/01/09 08:53:54;;;;;;;11.35;4.50;;;;;;;-5.48;66.16;102321.63;10537379;28;20085;-78
2023/01/09 08:58:54;;;;;;;8.43;4.68;;;;;;;-5.71;65.86;102239.91;10537896;28;20127;-79
2023/01/09 09:03:55;;;;;;;12.55;4.47;;;;;;;-6.05;65.03;102138.50;10537283;28;20036;-79
2023/01/09 09:08:56;;;;;;;10.93;4.72;;;;;;;-5.73;65.09;102163.97;10536942;28;20051;-79
2023/01/09 09:13:57;;;;;;;9.77;4.50;;;;;;;-5.01;64.76;102273.56;10537359;28;20086;-79
2023/01/09 09:18:58;;;;;;;8.52;4.38;;;;;;;-4.68;63.88;102318.88;10537579;28;20148;-79
2023/01/09 09:23:59;;;;;;;10.60;4.28;;;;;;;-4.91;63.78;102250.06;10537109;28;20047;-78
2023/01/09 09:28:59;;;;;;;10.02;4.07;;;;;;;-4.63;63.76;102297.19;10536577;28;20040;-78
2023/01/09 09:34:00;;;;;;;11.32;5.38;;;;;;;-4.76;64.05;102235.16;10536356;28;20139;-78
2023/01/09 09:39:01;;;;;;;12.73;4.65;;;;;;;-4.35;62.93;102283.78;10540411;28;20158;-78
2023/01/09 09:44:42;;;;;;;11.90;4.25;;;;;;;-4.27;61.48;102271.56;10544394;28;20032;-78
2023/01/09 09:50:17;;;;;;;9.85;4.53;;;;;;;-4.22;60.66;102276.66;10545187;28;20077;-78
2023/01/09 09:55:29;;;;;;;9.32;3.92;;;;;;;-4.32;61.54;102247.41;10544836;28;20040;-78
2023/01/09 10:00:30;;;;;;;8.93;3.78;;;;;;;-4.39;60.99;102243.22;10543640;28;20145;-77
2023/01/09 10:05:39;;;;;;;7.70;4.47;;;;;;;-4.18;60.35;102261.00;10543491;28;20040;-78
2023/01/09 10:10:46;;;;;;;8.82;4.43;;;;;;;-4.28;60.71;102206.69;10543362;28;20063;-78
2023/01/09 10:15:56;;;;;;;11.15;4.30;;;;;;;-4.22;59.50;102201.38;10544229;28;20060;-78
2023/01/09 10:21:24;;;;;;;11.13;4.57;;;;;;;-3.72;59.23;102270.53;10543469;28;20066;-78
2023/01/09 10:26:34;;;;;;;11.00;4.68;;;;;;;-3.72;59.01;102254.97;10544065;28;20076;-78
2023/01/09 10:31:59;;;;;;;9.02;4.32;;;;;;;-4.07;58.30;102215.81;10543984;28;20438;-78
2023/01/09 10:37:20;;;;;;;9.30;4.07;;;;;;;-3.84;58.75;102243.97;10543023;28;20426;-78
2023/01/09 10:42:41;;;;;;;7.60;3.85;;;;;;;-4.23;57.80;102168.56;10542417;28;20099;-78
2023/01/09 10:47:43;;;;;;;10.38;5.05;;;;;;;-4.16;58.75;102189.19;10542374;28;20035;-78
2023/01/09 10:52:47;;;;;;;9.32;4.35;;;;;;;-4.16;56.80;102206.47;10540776;28;20048;-77
2023/01/09 10:58:00;;;;;;;10.68;4.20;;;;;;;-3.88;57.16;102257.91;10542206;28;20407;-77
2023/01/09 11:03:01;;;;;;;11.75;4.35;;;;;;;-4.25;58.66;102176.34;10541109;28;20048;-77
2023/01/09 11:08:08;;;;;;;10.20;4.05;;;;;;;-3.81;57.54;102264.69;10540972;28;20040;-77
2023/01/09 11:13:18;;;;;;;10.73;4.00;;;;;;;-4.01;56.15;102252.94;10540450;28;20044;-77
2023/01/09 11:18:25;;;;;;;9.73;3.95;;;;;;;-4.13;57.54;102237.56;10540402;28;20094;-77
2023/01/09 11:23:31;;;;;;;9.48;4.18;;;;;;;-4.61;53.93;102196.00;10539766;28;20043;-77
2023/01/09 11:28:32;;;;;;;7.72;3.08;;;;;;;-5.51;55.35;102025.56;10541479;28;20050;-77
2023/01/09 11:33:42;;;;;;;10.57;3.50;;;;;;;-5.20;55.98;102082.06;10539843;28;20123;-76
2023/01/09 11:38:55;;;;;;;10.50;3.53;;;;;;;-4.76;56.52;102147.84;10540359;28;20040;-76
2023/01/09 11:43:58;;;;;;;11.18;4.38;;;;;;;-4.26;55.69;102241.25;10539901;28;20484;-75
2023/01/09 11:49:01;;;;;;;12.93;3.33;;;;;;;-5.03;56.75;102149.16;10532162;28;20455;-74
2023/01/09 11:54:29;;;;;;;9.98;3.60;;;;;;;-4.08;56.19;102276.41;10526810;28;20043;-75
2023/01/09 11:59:30;;;;;;;10.20;4.30;;;;;;;-4.34;57.59;102230.16;10516816;28;20457;-73
2023/01/09 12:04:47;;;;;;;8.20;3.90;;;;;;;-4.08;55.69;102286.81;10517950;28;20116;-74
2023/01/09 12:10:13;;;;;;;8.10;3.50;;;;;;;-4.11;56.39;102285.13;10509140;28;20523;-74
2023/01/09 12:15:23;;;;;;;8.07;3.80;;;;;;;-4.21;56.94;102294.81;10495647;28;20064;-76
2023/01/09 12:20:38;;;;;;;9.63;3.92;;;;;;;-5.11;55.88;102172.63;10508412;28;20117;-77
2023/01/09 12:25:53;;;;;;;8.48;3.78;;;;;;;-4.38;56.78;102302.00;10523166;28;20044;-76
2023/01/09 12:31:12;;;;;;;10.23;3.83;;;;;;;-4.55;56.54;102302.25;10528793;28;20586;-77
2023/01/09 12:36:31;;;;;;;10.60;4.10;;;;;;;-4.67;57.60;102313.66;10530677;28;20040;-76
2023/01/09 12:41:52;;;;;;;12.25;3.33;;;;;;;-5.86;57.04;102124.47;10535471;28;20363;-76
2023/01/09 12:47:23;;;;;;;10.57;3.95;;;;;;;-4.87;57.03;102319.16;10530332;28;20107;-74
2023/01/09 12:52:33;;;;;;;9.52;3.78;;;;;;;-5.42;57.48;102262.84;10504489;28;20044;-75
2023/01/09 12:57:38;;;;;;;10.68;3.58;;;;;;;-5.18;58.21;102336.81;10495972;28;20044;-74
2023/01/09 13:02:47;;;;;;;9.82;4.03;;;;;;;-6.19;58.39;102187.84;10502656;28;20044;-73
2023/01/09 13:07:53;;;;;;;12.02;3.63;;;;;;;-7.06;58.45;102062.84;10520674;28;20051;-72
2023/01/09 13:12:57;;;;;;;10.43;4.45;;;;;;;-5.75;58.52;102300.31;10535879;28;20046;-73
2023/01/09 13:18:11;;;;;;;12.57;4.20;;;;;;;-6.23;58.15;102248.22;10530579;28;20083;-74
2023/01/09 13:23:41;;;;;;;11.75;3.72;;;;;;;-5.81;58.79;102344.41;10520358;28;20544;-74
2023/01/09 13:28:59;;;;;;;9.93;3.53;;;;;;;-6.05;59.00;102337.75;10540086;28;20139;-75
2023/01/09 13:34:02;;;;;;;13.00;3.47;;;;;;;-6.27;59.53;102329.31;10519994;28;20101;-75
2023/01/09 13:39:04;;;;;;;11.57;3.63;;;;;;;-6.38;59.68;102352.66;10524157;28;20123;-74
2023/01/09 13:44:22;;;;;;;8.98;3.92;;;;;;;-7.02;59.95;102283.28;10532740;28;20134;-74
2023/01/09 13:49:31;;;;;;;7.88;3.40;;;;;;;-7.26;59.80;102284.25;10508223;28;20491;-75
2023/01/09 13:54:50;;;;;;;8.25;3.22;;;;;;;-7.29;59.69;102302.34;10532078;28;20044;-71
2023/01/09 13:59:51;;;;;;;14.63;4.72;;;;;;;-7.23;59.63;102357.41;10535620;28;20032;-73
2023/01/09 14:04:52;;;;;;;11.45;3.42;;;;;;;-7.09;59.85;102393.50;10532173;28;20086;-74
2023/01/09 14:10:02;;;;;;;9.55;3.80;;;;;;;-7.29;60.02;102405.63;10540164;28;20040;-74
2023/01/09 14:15:04;;;;;;;9.15;3.45;;;;;;;-7.73;60.10;102373.00;10542325;28;20058;-74
2023/01/09 14:20:22;;;;;;;8.85;3.80;;;;;;;-7.48;60.65;102433.19;10513517;28;20072;-73
2023/01/09 14:25:27;;;;;;;8.60;3.97;;;;;;;-7.62;61.21;102428.06;10517130;28;20040;-75
2023/01/09 14:30:34;;;;;;;12.75;3.70;;;;;;;-7.79;61.34;102429.78;10512289;28;20471;-75
2023/01/09 14:36:01;;;;;;;11.40;3.65;;;;;;;-9.39;61.30;102196.81;10501533;28;20044;-75
2023/01/09 14:41:16;;;;;;;8.50;3.88;;;;;;;-8.10;61.48;102447.81;10500441;28;20033;-74
2023/01/09 14:46:19;;;;;;;7.35;3.28;;;;;;;-8.46;62.21;102410.81;10500480;28;20127;-75
2023/01/09 14:51:23;;;;;;;9.83;4.13;;;;;;;-8.93;62.51;102351.44;10499132;28;20059;-74
2023/01/09 14:56:27;;;;;;;10.10;4.38;;;;;;;-8.97;62.97;102350.56;10499331;28;20059;-75
2023/01/09 15:01:31;;;;;;;7.95;3.17;;;;;;;-9.06;63.23;102351.38;10499922;28;20047;-72
2023/01/09 15:06:40;;;;;;;8.50;3.80;;;;;;;-8.69;63.58;102421.06;10509431;28;20033;-75
2023/01/09 15:11:41;;;;;;;9.35;4.07;;;;;;;-8.77;63.77;102430.47;10499021;28;20516;-72
2023/01/09 15:16:44;;;;;;;14.15;4.05;;;;;;;-8.78;63.78;102445.06;10492728;28;20086;-75
2023/01/09 15:22:03;;;;;;;10.73;3.70;;;;;;;-9.50;63.89;102330.59;10499811;28;20504;-70
2023/01/09 15:27:11;;;;;;;9.88;3.08;;;;;;;-8.74;64.15;102461.38;10514863;28;20056;-74
2023/01/09 15:32:28;;;;;;;6.90;3.58;;;;;;;-8.92;64.71;102438.13;10498896;28;20080;-74
2023/01/09 15:37:34;;;;;;;10.55;3.53;;;;;;;-9.25;64.39;102396.75;10497094;28;20044;-73
2023/01/09 15:48:23;;;;;;;8.05;3.45;;;;;;;-8.92;64.79;102472.47;10509044;28;20051;-73
2023/01/09 15:53:27;;;;;;;9.07;3.30;;;;;;;-9.58;63.99;102381.97;10498255;28;20453;-72
2023/01/09 15:58:35;;;;;;;12.30;3.27;;;;;;;-9.27;64.67;102433.63;10509076;28;20093;-73
2023/01/09 16:03:38;;;;;;;13.77;3.83;;;;;;;-9.60;64.84;102391.44;10534506;28;20046;-73
2023/01/09 16:08:41;;;;;;;19.23;4.50;;;;;;;-9.29;64.85;102456.81;10529693;28;20044;-71
2023/01/09 16:13:44;;;;;;;7.45;3.80;;;;;;;-9.33;64.82;102464.47;10527971;28;20056;-70
2023/01/09 16:18:51;;;;;;;10.23;4.07;;;;;;;-9.55;65.00;102440.31;10526904;28;20506;-73
2023/01/09 16:23:57;;;;;;;10.25;3.67;;;;;;;-9.68;65.34;102437.66;10529724;28;20126;-70
2023/01/09 16:29:37;;;;;;;8.85;3.47;;;;;;;-10.04;65.80;102393.66;10530041;28;20047;-69
2023/01/09 16:34:43;;;;;;;12.05;4.35;;;;;;;-9.69;66.12;102482.25;10510919;28;20415;-72
2023/01/09 16:40:03;;;;;;;10.45;3.90;;;;;;;-9.79;66.00;102469.28;10533215;28;20043;-72
2023/01/09 16:45:05;;;;;;;9.15;3.85;;;;;;;-10.15;66.17;102426.97;10530624;28;20032;-73
2023/01/09 16:50:10;;;;;;;10.70;3.72;;;;;;;-10.31;65.74;102405.44;10527160;28;20051;-70
2023/01/09 16:55:11;;;;;;;9.40;3.63;;;;;;;-10.06;65.80;102455.31;10532749;28;20044;-70
2023/01/09 17:00:16;;;;;;;22.45;4.43;;;;;;;-10.86;65.43;102305.59;10532282;28;20040;-73
2023/01/09 17:05:17;;;;;;;10.77;3.90;;;;;;;-10.02;65.57;102466.50;10529841;28;20123;-71
2023/01/09 17:10:20;;;;;;;9.45;3.70;;;;;;;-10.09;66.03;102457.88;10527443;28;20035;-74
2023/01/09 17:15:21;;;;;;;10.38;3.35;;;;;;;-10.18;65.80;102448.34;10532496;28;20060;-73
2023/01/09 17:20:24;;;;;;;11.60;4.10;;;;;;;-10.11;65.81;102465.56;10527722;28;20032;-74
2023/01/09 17:30:43;;;;;;;7.20;3.17;;;;;;;-10.64;65.66;102399.09;10523205;28;20043;-74
2023/01/09 17:35:45;;;;;;;10.07;3.90;;;;;;;-10.18;65.93;102491.19;10521547;28;20036;-72
2023/01/09 17:40:45;;;;;;;9.65;3.28;;;;;;;-10.32;66.14;102470.50;10525921;28;20066;-73
2023/01/09 17:45:47;;;;;;;8.30;3.60;;;;;;;-10.30;66.33;102475.66;10527111;28;20580;-73
2023/01/09 17:50:48;;;;;;;8.60;3.90;;;;;;;-10.38;66.32;102476.47;10523316;28;20130;-72
2023/01/09 17:55:49;;;;;;;8.77;3.88;;;;;;;-10.54;66.25;102450.56;10556082;28;20562;-72
2023/01/09 18:00:49;;;;;;;10.73;4.13;;;;;;;-10.91;66.02;102398.78;10557513;28;20047;-73
2023/01/09 18:05:51;;;;;;;16.02;4.43;;;;;;;-10.95;66.13;102402.16;10542896;28;20161;-73
2023/01/09 18:10:52;;;;;;;10.07;3.65;;;;;;;-10.87;66.21;102428.78;10542419;28;20036;-73
2023/01/09 18:15:53;;;;;;;8.82;3.30;;;;;;;-10.73;66.02;102464.91;10543962;28;20138;-73
2023/01/09 18:20:54;;;;;;;7.85;3.17;;;;;;;-11.00;65.88;102430.34;10543696;28;20189;-73
2023/01/09 18:25:55;;;;;;;8.35;3.35;;;;;;;-10.86;65.85;102453.59;10520863;28;20077;-74
2023/01/09 18:30:56;;;;;;;7.45;3.22;;;;;;;-10.66;65.81;102502.66;10499195;28;20067;-73
2023/01/09 18:36:07;;;;;;;8.10;2.97;;;;;;;-11.20;65.96;102417.22;10500212;28;20032;-74
2023/01/09 18:41:07;;;;;;;5.78;2.47;;;;;;;-10.78;65.89;102493.09;10501261;28;20523;-73
2023/01/09 18:46:08;;;;;;;11.60;3.28;;;;;;;-10.80;65.94;102502.47;10499265;28;20047;-73
2023/01/09 18:51:09;;;;;;;8.18;3.20;;;;;;;-11.00;65.65;102485.94;10500473;28;20521;-73
2023/01/09 18:56:10;;;;;;;7.38;3.08;;;;;;;-10.96;65.97;102496.25;10505083;28;20040;-73
2023/01/09 19:01:12;;;;;;;11.90;2.97;;;;;;;-10.94;65.82;102493.72;10506463;28;20044;-73
2023/01/09 19:06:13;;;;;;;7.55;3.20;;;;;;;-11.59;65.93;102399.59;10500547;28;20044;-72
2023/01/09 19:11:14;;;;;;;10.02;3.30;;;;;;;-11.19;66.05;102485.66;10499259;28;20044;-73
2023/01/09 19:16:15;;;;;;;6.20;2.88;;;;;;;-11.23;65.55;102473.63;10498856;28;20048;-72
2023/01/09 19:21:22;;;;;;;9.82;2.80;;;;;;;-11.34;65.09;102464.91;10497940;28;20047;-73
2023/01/09 19:26:25;;;;;;;6.55;2.42;;;;;;;-11.08;64.95;102514.91;10498952;28;20032;-73
2023/01/09 19:31:27;;;;;;;7.38;2.67;;;;;;;-11.56;64.98;102451.78;10498857;28;20037;-73
2023/01/09 19:36:27;;;;;;;7.63;2.45;;;;;;;-11.53;65.04;102479.16;10498432;28;20037;-73
2023/01/09 19:41:28;;;;;;;5.75;2.63;;;;;;;-11.89;64.95;102443.56;10498836;28;20051;-73
2023/01/09 19:46:32;;;;;;;9.27;3.03;;;;;;;-11.49;65.41;102529.66;10499351;28;20086;-74
2023/01/09 19:51:33;;;;;;;9.35;3.33;;;;;;;-12.47;65.79;102410.97;10497592;28;20094;-73
2023/01/09 19:56:36;;;;;;;7.32;2.33;;;;;;;-12.20;66.04;102468.66;10497692;28;20048;-74
2023/01/09 20:01:40;;;;;;;6.27;2.53;;;;;;;-12.14;66.13;102479.03;10497116;28;20041;-73
2023/01/09 20:06:44;;;;;;;6.63;2.53;;;;;;;-12.26;66.55;102477.09;10497438;28;20123;-73
2023/01/09 20:11:44;;;;;;;;;;;;;;;-11.87;66.20;102544.44;10495922;28;20066;-73
2023/01/09 20:16:47;;;;;;;6.65;2.55;;;;;;;-12.50;65.79;102458.69;10495812;28;19956;-73
2023/01/09 20:21:48;;;;;;;7.00;2.70;;;;;;;-11.96;65.53;102555.38;10496423;28;20036;-74
2023/01/09 20:26:49;;;;;;;4.30;1.88;;;;;;;-12.39;65.54;102487.94;10506202;28;20540;-73
2023/01/09 20:31:50;;;;;;;6.55;2.70;;;;;;;-11.97;65.46;102561.31;10497462;28;20186;-74
2023/01/09 20:36:53;;;;;;;8.10;2.30;;;;;;;-12.10;65.63;102552.53;10496686;28;20131;-73
2023/01/09 20:41:54;;;;;;;7.15;2.60;;;;;;;-12.18;65.62;102528.47;10496134;28;20119;-73
2023/01/09 20:46:54;;;;;;;6.40;2.45;;;;;;;-12.48;65.69;102488.63;10494976;28;20445;-74
2023/01/09 20:51:55;;;;;;;7.82;2.63;;;;;;;-12.79;66.09;102445.34;10496228;28;20037;-73
2023/01/09 20:56:56;;;;;;;7.50;2.45;;;;;;;-12.48;66.28;102498.84;10494730;28;20474;-73
2023/01/09 21:01:57;;;;;;;4.68;2.03;;;;;;;-12.14;67.02;102565.25;10495246;28;20041;-73
2023/01/09 21:06:57;;;;;;;5.78;2.75;;;;;;;-12.21;67.51;102579.63;10495103;28;20076;-73
2023/01/09 21:11:58;;;;;;;5.85;2.10;;;;;;;-12.34;67.73;102555.47;10495976;28;20036;-73
2023/01/09 21:16:59;;;;;;;8.20;2.72;;;;;;;-13.14;68.10;102433.50;10494906;28;20057;-74
2023/01/09 21:22:00;;;;;;;6.78;2.85;;;;;;;-12.90;69.61;102493.72;10494474;28;20037;-73
2023/01/09 21:27:01;;;;;;;8.77;2.72;;;;;;;-12.63;69.68;102544.63;10495194;28;20049;-73
2023/01/09 21:32:02;;;;;;;6.80;2.60;;;;;;;-12.51;70.36;102573.03;10495274;28;20034;-73
2023/01/09 21:37:03;;;;;;;7.65;2.88;;;;;;;-12.95;69.69;102491.06;10501844;28;20059;-73
2023/01/09 21:47:37;;;;;;;4.88;2.00;;;;;;;-12.95;69.81;102482.50;10468320;28;20147;-74
2023/01/09 21:52:37;;;;;;;8.48;2.35;;;;;;;-12.93;70.25;102491.94;10503037;28;20032;-73
2023/01/09 21:57:38;;;;;;;4.97;1.95;;;;;;;-12.40;70.36;102569.88;10502148;28;20127;-73
2023/01/09 22:02:39;;;;;;;3.65;1.83;;;;;;;-12.79;70.40;102507.63;10498805;28;20074;-73
2023/01/09 22:07:40;;;;;;;6.93;2.88;;;;;;;-12.85;70.65;102511.75;10500169;28;20134;-73
2023/01/09 22:13:11;;;;;;;5.45;1.85;;;;;;;-12.74;70.83;102546.09;10502382;28;20037;-73
2023/01/09 22:18:05;;;;;;;7.80;3.17;;;;;;;-12.74;71.05;102536.75;10500904;28;20044;-74
2023/01/09 22:23:05;;;;;;;11.57;4.13;;;;;;;-12.60;71.61;102575.41;10501412;28;20120;-73
2023/01/09 22:28:09;;;;;;;11.88;3.25;;;;;;;-12.69;71.36;102549.63;10501249;28;20051;-73
2023/01/09 22:33:10;;;;;;;6.47;2.50;;;;;;;-12.73;72.85;102568.31;10500587;28;20047;-74
2023/01/09 22:38:11;;;;;;;6.45;2.50;;;;;;;-13.30;72.32;102497.97;10499758;28;20051;-74
2023/01/09 22:43:15;;;;;;;11.02;3.05;;;;;;;-12.77;72.46;102595.53;10500661;28;20432;-73
2023/01/09 22:48:15;;;;;;;10.43;4.20;;;;;;;-13.02;73.05;102571.06;10500458;28;20082;-73
2023/01/09 22:53:16;;;;;;;6.53;2.80;;;;;;;-13.07;73.14;102561.53;10509502;28;20073;-73
2023/01/09 22:58:17;;;;;;;12.10;3.97;;;;;;;-13.26;71.96;102519.38;10499591;28;20048;-74
2023/01/09 23:03:18;;;;;;;9.52;3.13;;;;;;;-13.41;72.61;102532.66;10525902;28;20042;-74
2023/01/09 23:08:18;;;;;;;10.93;3.35;;;;;;;-12.92;72.21;102592.59;10541302;28;20138;-73
2023/01/09 23:13:19;;;;;;;10.95;3.70;;;;;;;-13.64;72.81;102492.06;10539422;28;20036;-74
2023/01/09 23:18:20;;;;;;;11.38;3.90;;;;;;;-13.41;72.49;102535.22;10541030;28;20539;-73
2023/01/09 23:23:22;;;;;;;14.75;4.30;;;;;;;-13.60;73.30;102534.75;10540788;28;20047;-74